Antelope, Oregon
Current Conditions -  °F | °C
As of 4:15 AM on Saturday 25 Oct 2014 (Local Time) from KS39 Reporting Station
Moderate Fog Moderate Fog  
Wind Chill:   Ceiling: 200
Heat Index:   Visibility: 0mi
Dew Point:   Wind: 0mph
Humidity: 100%   Direction: NA
Pressure: 29.7"   Gusts: NA
Location:  44.91°N, 120.72°W
Report Text: KS39 251115Z AUTO 00000KT M1/4SM FG OVC002 06/06 A2970 RMK AO2
Loading
Personal Weather Stations






























Interactive Weather Map
Tropical Storm Tracking
New forecast layout! Learn more

10-Day Weather Forecast

Advertisements
Track Severe Weather on mobile